Time;durP1;ratioP1;P1;durP2;ratioP2;P2;SDS_P1;SDS_P2;PMS_P1;PMS_P2;Temp;Humidity;BMP_temperature;BMP_pressure;BME280_temperature;BME280_humidity;BME280_pressure;Samples;Min_cycle;Max_cycle;Signal;HPM_P1;HPM_P2
2021/01/15 00:01:59;;;;;;;12.00;6.43;;;;;;;0.57;95.04;101398.91;4969864;28;20093;-75
2021/01/15 00:04:26;;;;;;;13.65;6.95;;;;;;;0.61;94.46;101390.25;4983367;28;20488;-73
2021/01/15 00:07:03;;;;;;;14.68;6.28;;;;;;;0.64;93.87;101398.00;4993826;28;20043;-74
2021/01/15 00:09:30;;;;;;;12.77;6.68;;;;;;;0.61;94.15;101395.41;4983913;28;20054;-76
2021/01/15 00:11:57;;;;;;;12.70;6.78;;;;;;;0.69;93.64;101404.03;4971255;28;20081;-75
2021/01/15 00:14:24;;;;;;;9.77;6.10;;;;;;;0.58;94.23;101397.16;4963260;28;20047;-76
2021/01/15 00:16:52;;;;;;;16.80;7.30;;;;;;;0.57;94.53;101404.06;4966662;28;20061;-76
2021/01/15 00:19:20;;;;;;;12.55;6.43;;;;;;;0.70;94.18;101400.56;4969484;28;20100;-75
2021/01/15 00:21:50;;;;;;;10.43;5.75;;;;;;;0.76;93.46;101400.50;4972058;28;20058;-75
2021/01/15 00:24:20;;;;;;;12.65;6.38;;;;;;;0.68;93.86;101401.44;4956226;28;20045;-75
2021/01/15 00:26:47;;;;;;;13.40;6.20;;;;;;;0.73;94.10;101397.94;4971565;28;20055;-77
2021/01/15 00:29:15;;;;;;;10.30;5.85;;;;;;;0.73;93.56;101402.28;4984112;28;20050;-77
2021/01/15 00:31:46;;;;;;;9.75;5.82;;;;;;;0.73;93.14;101403.13;4974035;28;20370;-76
2021/01/15 00:34:16;;;;;;;15.32;7.10;;;;;;;0.57;93.33;101403.22;4962505;28;20050;-75
2021/01/15 00:36:44;;;;;;;10.70;6.20;;;;;;;0.40;94.30;101406.75;4971441;28;20050;-74
2021/01/15 00:39:16;;;;;;;15.00;7.10;;;;;;;0.40;94.61;101403.28;4969307;28;20062;-75
2021/01/15 00:41:44;;;;;;;15.43;6.95;;;;;;;0.39;94.91;101399.00;4988663;28;20039;-76
2021/01/15 00:44:12;;;;;;;12.00;6.20;;;;;;;0.55;94.23;101399.78;4972575;28;20035;-75
2021/01/15 00:46:48;;;;;;;13.10;6.88;;;;;;;0.48;93.85;101402.38;4972914;28;20045;-75
2021/01/15 00:49:15;;;;;;;13.20;7.43;;;;;;;0.57;93.78;101400.63;4974951;28;20074;-75
2021/01/15 00:51:50;;;;;;;16.50;5.82;;;;;;;0.27;95.15;101402.50;4950172;28;20507;-74
2021/01/15 00:54:17;;;;;;;11.68;6.90;;;;;;;0.37;95.15;101401.59;4949862;28;20051;-76
2021/01/15 00:56:43;;;;;;;16.88;7.97;;;;;;;0.36;95.12;101412.84;4959317;28;20456;-75
2021/01/15 00:59:10;;;;;;;14.55;6.50;;;;;;;0.32;94.89;101408.53;4963023;28;20070;-76
2021/01/15 01:01:38;;;;;;;14.02;6.38;;;;;;;0.25;94.83;101415.44;4968906;28;20576;-74
2021/01/15 01:04:05;;;;;;;13.98;7.15;;;;;;;0.21;95.47;101416.31;4967190;28;20038;-75
2021/01/15 01:06:32;;;;;;;13.00;7.53;;;;;;;0.21;95.63;101423.22;4968833;28;20066;-76
2021/01/15 01:09:02;;;;;;;16.73;6.63;;;;;;;0.46;94.72;101421.41;4965330;28;20146;-76
2021/01/15 01:11:32;;;;;;;12.18;7.03;;;;;;;0.38;95.13;101421.44;4964442;28;20058;-76
2021/01/15 01:14:03;;;;;;;12.68;7.20;;;;;;;0.41;94.74;101423.19;4954883;28;20488;-75
2021/01/15 01:16:31;;;;;;;16.52;7.43;;;;;;;0.31;94.66;101431.81;4987098;28;20050;-76
2021/01/15 01:18:58;;;;;;;12.32;6.68;;;;;;;0.27;95.43;101424.94;4968168;28;20114;-75
2021/01/15 01:21:25;;;;;;;11.73;6.35;;;;;;;0.27;95.48;101431.00;4968016;28;20050;-74
2021/01/15 01:23:52;;;;;;;16.08;8.05;;;;;;;0.22;95.02;101424.94;4949144;28;20051;-76
2021/01/15 01:26:20;;;;;;;12.23;6.75;;;;;;;0.19;95.82;101438.78;4965235;28;20085;-75
2021/01/15 01:28:46;;;;;;;15.23;7.95;;;;;;;0.32;94.75;101430.97;4984798;28;20038;-75
2021/01/15 01:31:15;;;;;;;17.63;7.00;;;;;;;0.23;95.02;101439.66;4963876;28;20142;-75
2021/01/15 01:33:42;;;;;;;14.43;6.97;;;;;;;0.12;95.36;101441.38;4982791;28;20053;-76
2021/01/15 01:36:09;;;;;;;13.73;6.82;;;;;;;0.23;95.46;101444.81;4975867;28;20043;-75
2021/01/15 01:38:37;;;;;;;13.32;6.80;;;;;;;0.18;95.28;101450.03;4973679;28;20065;-78
2021/01/15 01:41:05;;;;;;;15.50;7.00;;;;;;;0.08;96.05;101444.84;4972304;28;20382;-78
2021/01/15 01:43:32;;;;;;;11.75;6.43;;;;;;;0.12;96.08;101451.75;4950694;28;20050;-77
2021/01/15 01:46:02;;;;;;;14.05;7.28;;;;;;;0.14;95.71;101450.03;4975121;28;20540;-78
2021/01/15 01:48:29;;;;;;;15.73;7.35;;;;;;;0.10;96.06;101448.31;4943800;28;21740;-77
2021/01/15 01:50:56;;;;;;;13.30;7.82;;;;;;;0.19;95.17;101450.88;4950532;28;20494;-76
2021/01/15 01:53:24;;;;;;;15.77;7.60;;;;;;;0.06;95.85;101449.19;4980083;28;20055;-78
2021/01/15 01:55:51;;;;;;;15.02;7.75;;;;;;;0.05;96.07;101455.25;4985811;28;20603;-77
2021/01/15 01:58:18;;;;;;;15.55;8.63;;;;;;;0.03;96.54;101447.44;4973721;28;20066;-76
2021/01/15 02:00:46;;;;;;;13.88;8.88;;;;;;;0.06;96.07;101442.28;4976873;28;20057;-77
2021/01/15 02:03:18;;;;;;;18.38;7.93;;;;;;;0.06;95.67;101444.00;4970212;28;20085;-77
2021/01/15 02:05:44;;;;;;;16.33;8.55;;;;;;;0.03;96.15;101442.28;4960471;28;20043;-78
2021/01/15 02:08:11;;;;;;;17.23;8.40;;;;;;;0.02;96.38;101448.31;4966028;28;20055;-78
2021/01/15 02:11:01;;;;;;;19.75;8.30;;;;;;;-0.06;96.48;101450.91;4993114;28;20051;-77
2021/01/15 02:13:41;;;;;;;12.40;7.60;;;;;;;-0.05;96.83;101447.47;4980719;28;20041;-76
2021/01/15 02:16:13;;;;;;;15.80;7.75;;;;;;;0.08;96.67;101447.44;4964206;28;20139;-77
2021/01/15 02:18:49;;;;;;;17.25;8.15;;;;;;;0.11;96.02;101443.13;4955899;28;20056;-78
2021/01/15 02:21:25;;;;;;;16.17;8.02;;;;;;;0.09;96.42;101443.97;4982702;28;20050;-77
2021/01/15 02:23:57;;;;;;;16.55;8.80;;;;;;;0.10;95.57;101446.59;4969829;28;20540;-78
2021/01/15 02:26:56;;;;;;;13.68;7.68;;;;;;;0.11;95.35;101450.88;4945350;28;20070;-77
2021/01/15 02:29:27;;;;;;;13.45;7.55;;;;;;;0.09;95.40;101451.75;4986615;28;20046;-77
2021/01/15 02:32:15;;;;;;;13.85;7.63;;;;;;;0.13;94.95;101456.06;4988570;28;20059;-75
2021/01/15 02:35:20;;;;;;;15.98;7.38;;;;;;;0.12;95.31;101455.19;4976954;28;20043;-75
2021/01/15 02:37:50;;;;;;;14.60;8.88;;;;;;;-0.01;95.98;101462.13;5000952;28;20252;-78
2021/01/15 02:40:27;;;;;;;14.80;8.05;;;;;;;0.18;95.44;101462.06;4984456;28;21540;-78
2021/01/15 02:42:55;;;;;;;16.52;8.30;;;;;;;0.20;95.24;101468.13;4982585;28;20051;-77
2021/01/15 02:45:22;;;;;;;16.75;8.65;;;;;;;0.22;95.03;101474.16;4939898;28;20389;-78
2021/01/15 02:47:53;;;;;;;14.45;7.88;;;;;;;0.19;95.48;101475.03;4957574;28;20049;-78
2021/01/15 02:50:22;;;;;;;13.18;8.05;;;;;;;0.26;95.20;101473.28;4956125;28;20504;-78
2021/01/15 02:52:49;;;;;;;16.58;8.77;;;;;;;0.34;94.83;101476.72;4953740;28;20050;-78
2021/01/15 02:55:16;;;;;;;15.40;8.23;;;;;;;0.32;94.77;101473.28;4976952;28;20133;-77
2021/01/15 02:57:43;;;;;;;17.90;7.82;;;;;;;0.39;93.72;101479.28;4972702;28;20133;-77
2021/01/15 03:00:19;;;;;;;15.10;8.07;;;;;;;0.25;94.54;101479.31;4974042;28;20059;-78
2021/01/15 03:02:48;;;;;;;15.00;7.78;;;;;;;0.45;94.85;101479.25;4960017;28;20042;-77
2021/01/15 03:05:21;;;;;;;12.50;7.80;;;;;;;0.40;94.15;101479.28;4951958;28;20039;-76
2021/01/15 03:07:52;;;;;;;12.82;7.53;;;;;;;0.44;93.81;101480.97;4969042;28;20366;-77
2021/01/15 03:10:22;;;;;;;22.65;9.23;;;;;;;0.35;93.71;101486.19;4968925;28;20537;-75
2021/01/15 03:12:50;;;;;;;14.15;8.20;;;;;;;0.44;94.14;101478.41;4968684;28;20038;-77
2021/01/15 03:15:18;;;;;;;13.52;8.15;;;;;;;0.35;92.88;101486.19;4960328;28;20043;-78
2021/01/15 03:17:49;;;;;;;16.90;8.40;;;;;;;0.19;93.86;101485.41;4978166;28;20440;-76
2021/01/15 03:20:17;;;;;;;15.50;8.18;;;;;;;0.18;93.67;101485.38;4985443;28;20058;-77
2021/01/15 03:22:45;;;;;;;10.85;7.32;;;;;;;0.12;93.62;101500.94;4975774;28;20050;-78
2021/01/15 03:25:13;;;;;;;14.75;8.73;;;;;;;0.20;93.96;101487.09;4972177;28;20039;-77
2021/01/15 03:27:43;;;;;;;15.32;8.70;;;;;;;0.15;93.88;101490.59;4978352;28;20055;-78
2021/01/15 03:30:12;;;;;;;18.02;8.52;;;;;;;0.16;93.70;101484.53;4950513;28;20046;-77
2021/01/15 03:32:39;;;;;;;14.43;7.90;;;;;;;0.21;93.78;101491.41;4950668;28;20066;-76
2021/01/15 03:35:07;;;;;;;19.13;8.13;;;;;;;0.19;93.28;101485.41;4968667;28;20142;-77
2021/01/15 03:37:34;;;;;;;14.80;8.02;;;;;;;0.33;92.54;101489.69;4962294;28;20039;-77
2021/01/15 03:40:03;;;;;;;14.60;7.97;;;;;;;0.38;92.95;101475.84;4981813;28;20085;-78
2021/01/15 03:42:30;;;;;;;13.57;7.63;;;;;;;0.49;92.90;101478.38;4982423;28;20129;-77
2021/01/15 03:44:56;;;;;;;12.50;7.80;;;;;;;0.68;91.77;101467.09;4972329;28;20555;-77
2021/01/15 03:47:23;;;;;;;14.30;8.10;;;;;;;0.69;91.59;101461.03;4966593;28;20050;-77
2021/01/15 03:49:50;;;;;;;11.43;6.70;;;;;;;0.67;91.01;101457.56;4950730;28;20078;-77
2021/01/15 03:52:17;;;;;;;14.57;7.88;;;;;;;0.56;91.46;101459.34;4967289;28;20050;-77
2021/01/15 03:54:43;;;;;;;10.55;6.85;;;;;;;0.45;91.62;101467.19;4992076;28;20038;-77
2021/01/15 03:57:11;;;;;;;13.85;7.70;;;;;;;0.50;91.55;101469.75;4950772;28;20109;-77
2021/01/15 03:59:38;;;;;;;14.82;7.53;;;;;;;0.42;91.84;101472.38;4966648;28;20055;-78
2021/01/15 04:02:05;;;;;;;11.98;7.18;;;;;;;0.20;92.31;101481.06;4968447;28;20059;-76
2021/01/15 04:04:32;;;;;;;13.88;7.90;;;;;;;0.07;92.75;101492.31;4971320;28;20062;-75
2021/01/15 04:06:59;;;;;;;12.63;7.85;;;;;;;0.18;92.76;101475.91;4943279;28;20039;-78
2021/01/15 04:09:26;;;;;;;11.07;6.95;;;;;;;0.35;91.76;101483.59;4963956;28;20050;-79
2021/01/15 04:11:53;;;;;;;12.73;7.60;;;;;;;0.20;92.45;101487.09;4967435;28;20151;-77
2021/01/15 04:14:20;;;;;;;12.30;7.88;;;;;;;0.23;92.54;101487.13;4956226;28;20047;-77
2021/01/15 04:16:51;;;;;;;13.43;6.75;;;;;;;0.32;92.51;101485.38;4950133;28;20047;-75
2021/01/15 04:19:17;;;;;;;15.30;9.02;;;;;;;0.26;91.71;101486.22;4956312;28;20077;-78
2021/01/15 04:21:44;;;;;;;12.35;8.13;;;;;;;0.09;92.41;101485.41;4965463;28;20059;-77
2021/01/15 04:24:11;;;;;;;15.38;7.75;;;;;;;0.03;93.38;101488.00;4972131;28;20445;-76
2021/01/15 04:26:37;;;;;;;12.95;7.50;;;;;;;0.17;92.82;101488.84;4958746;28;20073;-77
2021/01/15 04:29:04;;;;;;;20.98;8.75;;;;;;;0.31;92.23;101476.72;4938324;28;20051;-78
2021/01/15 04:31:32;;;;;;;12.45;7.35;;;;;;;0.46;92.39;101487.03;4966824;28;20050;-77
2021/01/15 04:33:59;;;;;;;13.77;7.10;;;;;;;0.51;91.06;101481.84;4970919;28;20081;-77
2021/01/15 04:36:26;;;;;;;12.23;7.22;;;;;;;0.49;90.70;101479.22;4987216;28;20474;-78
2021/01/15 04:38:53;;;;;;;15.50;7.70;;;;;;;0.42;90.63;101487.91;4984068;28;20057;-77
2021/01/15 04:41:24;;;;;;;11.15;6.90;;;;;;;0.47;90.45;101480.97;4978797;28;21160;-77
2021/01/15 04:43:54;;;;;;;13.00;7.68;;;;;;;0.27;90.84;101481.91;4972011;28;20047;-76
2021/01/15 04:46:22;;;;;;;16.90;6.95;;;;;;;0.26;89.90;101481.03;4974955;28;20093;-77
2021/01/15 04:48:50;;;;;;;13.30;6.93;;;;;;;0.32;89.82;101488.81;4952743;28;20049;-77
2021/01/15 04:51:19;;;;;;;16.55;7.63;;;;;;;0.20;89.54;101481.06;4972854;28;20057;-77
2021/01/15 04:53:54;;;;;;;12.75;6.95;;;;;;;0.09;89.49;101481.09;4958819;28;20488;-78
2021/01/15 04:56:34;;;;;;;10.18;6.95;;;;;;;0.01;89.39;101489.75;4979293;28;20057;-77
2021/01/15 04:59:03;;;;;;;11.23;6.47;;;;;;;-0.02;89.04;101498.38;4948409;28;20059;-78
2021/01/15 05:01:37;;;;;;;10.10;6.13;;;;;;;0.13;88.12;101493.16;4970613;28;20158;-78
2021/01/15 05:04:11;;;;;;;12.15;6.88;;;;;;;0.10;88.57;101489.75;4968731;28;20093;-76
2021/01/15 05:06:46;;;;;;;9.57;5.72;;;;;;;0.12;87.29;101494.03;4973815;28;20065;-77
2021/01/15 05:09:25;;;;;;;11.27;5.82;;;;;;;-0.17;87.85;101491.50;4968827;28;20129;-78
2021/01/15 05:11:52;;;;;;;12.43;7.53;;;;;;;-0.17;87.93;101494.09;4982856;28;20054;-77
2021/01/15 05:14:20;;;;;;;8.30;5.25;;;;;;;-0.28;87.32;101501.84;4968140;28;20418;-77
2021/01/15 05:16:52;;;;;;;8.75;5.82;;;;;;;-0.24;87.19;101504.44;4957812;28;20070;-75
2021/01/15 05:19:19;;;;;;;10.65;6.20;;;;;;;-0.24;86.51;101497.53;4971736;28;20089;-75
2021/01/15 05:21:50;;;;;;;8.73;5.70;;;;;;;-0.32;86.31;101505.28;4948970;28;20045;-77
2021/01/15 05:24:18;;;;;;;11.00;5.47;;;;;;;-0.36;86.07;101505.28;4957849;28;20354;-75
2021/01/15 05:26:45;;;;;;;9.48;5.30;;;;;;;-0.44;86.32;101505.31;4973905;28;20047;-76
2021/01/15 05:29:12;;;;;;;10.30;5.38;;;;;;;-0.41;86.49;101507.00;4968426;28;20140;-75
2021/01/15 05:31:55;;;;;;;9.05;5.60;;;;;;;-0.46;86.85;101508.75;4970321;28;20073;-75
2021/01/15 05:34:27;;;;;;;9.00;6.07;;;;;;;-0.51;86.36;101511.31;4952837;28;20137;-74
2021/01/15 05:36:55;;;;;;;12.63;6.80;;;;;;;-0.54;86.97;101511.31;4974301;28;20131;-74
2021/01/15 05:39:27;;;;;;;14.95;7.07;;;;;;;-0.44;86.29;101509.63;4971792;28;20291;-74
2021/01/15 05:41:59;;;;;;;11.38;6.72;;;;;;;-0.54;86.22;101508.72;4968083;28;20038;-74
2021/01/15 05:44:26;;;;;;;11.13;5.95;;;;;;;-0.43;86.44;101509.59;4985782;28;20043;-75
2021/01/15 05:46:53;;;;;;;11.68;6.68;;;;;;;-0.43;86.32;101514.78;4973255;28;20055;-75
2021/01/15 05:49:20;;;;;;;9.45;6.20;;;;;;;-0.48;86.18;101513.06;4951006;28;20142;-75
2021/01/15 05:51:47;;;;;;;11.52;7.00;;;;;;;-0.57;87.41;101514.78;4951451;28;20055;-76
2021/01/15 05:54:30;;;;;;;12.68;7.13;;;;;;;-0.48;86.43;101516.50;4952846;28;20065;-76
2021/01/15 05:57:02;;;;;;;8.25;5.85;;;;;;;-0.44;85.86;101525.13;4970573;28;20436;-75
2021/01/15 05:59:28;;;;;;;11.57;6.57;;;;;;;-0.48;86.37;101529.44;4985757;28;20065;-75
2021/01/15 06:02:05;;;;;;;13.10;7.15;;;;;;;-0.54;86.47;101530.31;4971813;28;20513;-75
2021/01/15 06:04:35;;;;;;;13.63;7.65;;;;;;;-0.48;86.93;101526.84;4963930;28;20155;-76
2021/01/15 06:07:08;;;;;;;12.73;6.97;;;;;;;-0.27;85.34;101534.63;4968575;28;20054;-74
2021/01/15 06:09:40;;;;;;;12.30;6.18;;;;;;;-0.28;85.65;101532.88;4983657;28;21730;-76
2021/01/15 06:12:12;;;;;;;14.52;6.30;;;;;;;-0.27;86.49;101541.50;4971146;28;20067;-75
2021/01/15 06:14:57;;;;;;;11.82;6.75;;;;;;;-0.56;87.03;101534.59;4954046;28;20046;-74
2021/01/15 06:17:25;;;;;;;13.13;7.43;;;;;;;-0.39;86.93;101544.97;4974907;28;20067;-75
2021/01/15 06:20:02;;;;;;;17.35;7.82;;;;;;;-0.48;87.21;101544.97;4962760;28;20083;-75
2021/01/15 06:22:46;;;;;;;11.70;6.85;;;;;;;-0.33;86.52;101536.34;4972176;28;20182;-76
2021/01/15 06:25:18;;;;;;;11.50;7.15;;;;;;;-0.45;87.60;101547.56;4973868;28;20665;-75
2021/01/15 06:27:46;;;;;;;12.40;6.68;;;;;;;-0.34;86.87;101548.41;4977695;28;20065;-75
2021/01/15 06:30:13;;;;;;;14.55;6.88;;;;;;;-0.24;86.17;101551.88;4978801;28;20071;-75
2021/01/15 06:32:41;;;;;;;11.82;7.85;;;;;;;-0.41;86.61;101551.84;4971080;28;20050;-77
2021/01/15 06:35:28;;;;;;;11.63;7.20;;;;;;;-0.55;87.02;101559.59;4963534;28;20051;-75
2021/01/15 06:38:01;;;;;;;11.00;6.88;;;;;;;-0.43;87.14;101556.16;4958968;28;20058;-74
2021/01/15 06:40:32;;;;;;;12.77;6.53;;;;;;;-0.44;86.92;101564.81;4974731;28;20121;-76
2021/01/15 06:42:59;;;;;;;13.10;7.00;;;;;;;-0.39;86.50;101552.72;4989916;28;20086;-75
2021/01/15 06:45:42;;;;;;;10.15;6.95;;;;;;;-0.33;86.00;101570.84;4984509;28;20047;-75
2021/01/15 06:48:14;;;;;;;11.70;6.88;;;;;;;-0.54;87.21;101566.50;4972186;28;20070;-75
2021/01/15 06:50:43;;;;;;;11.43;7.18;;;;;;;-0.43;87.36;101555.31;4960935;28;20058;-75
2021/01/15 06:53:27;;;;;;;12.15;6.47;;;;;;;-0.30;86.11;101568.25;4967628;28;20081;-75
2021/01/15 06:55:59;;;;;;;12.23;6.75;;;;;;;-0.22;86.04;101562.25;4963158;28;20061;-76
2021/01/15 06:58:28;;;;;;;11.68;7.00;;;;;;;-0.14;85.79;101569.13;4965522;28;20055;-74
2021/01/15 07:00:57;;;;;;;8.70;5.18;;;;;;;-0.29;84.34;101574.28;4970941;28;20039;-73
2021/01/15 07:03:56;;;;;;;10.38;5.97;;;;;;;-0.37;85.13;101582.03;4981418;28;20066;-76
2021/01/15 07:06:34;;;;;;;9.07;5.45;;;;;;;-0.33;84.41;101577.72;4970883;28;20157;-75
2021/01/15 07:09:06;;;;;;;13.82;6.25;;;;;;;-0.38;85.21;101580.31;4957430;28;20059;-75
2021/01/15 07:11:34;;;;;;;9.20;5.60;;;;;;;-0.44;85.16;101580.31;4968024;28;20321;-76
2021/01/15 07:14:04;;;;;;;12.07;6.93;;;;;;;-0.48;85.75;101586.34;4973536;28;20034;-75
2021/01/15 07:16:36;;;;;;;13.18;6.53;;;;;;;-0.35;85.73;101584.66;4994618;28;20153;-75
2021/01/15 07:19:15;;;;;;;11.30;6.68;;;;;;;-0.29;85.42;101588.09;4989638;28;20087;-75
2021/01/15 07:22:02;;;;;;;9.55;5.57;;;;;;;-0.44;84.63;101595.84;4950269;28;20047;-75
2021/01/15 07:24:33;;;;;;;12.80;6.07;;;;;;;-0.44;85.08;101598.44;4984146;28;20051;-76
2021/01/15 07:27:01;;;;;;;10.00;6.70;;;;;;;-0.53;85.03;101598.41;4951860;28;20046;-78
2021/01/15 07:29:29;;;;;;;10.15;6.13;;;;;;;-0.56;85.52;101599.25;4976844;28;20050;-81
2021/01/15 07:31:59;;;;;;;11.48;6.80;;;;;;;-0.43;85.50;101607.03;4984382;28;20045;-78
2021/01/15 07:34:27;;;;;;;10.75;6.38;;;;;;;-0.35;84.03;101602.75;4979762;28;20145;-77
2021/01/15 07:36:53;;;;;;;10.68;5.45;;;;;;;-0.48;84.35;101603.59;4957835;28;20073;-79
2021/01/15 07:39:24;;;;;;;11.20;5.65;;;;;;;-0.53;84.34;101598.41;4976482;28;20229;-78
2021/01/15 07:41:55;;;;;;;9.95;5.47;;;;;;;-0.41;83.93;101602.72;4987087;28;20036;-79
2021/01/15 07:44:24;;;;;;;14.13;5.30;;;;;;;-0.55;83.74;101611.31;4983650;28;20062;-78
2021/01/15 07:46:56;;;;;;;8.90;5.72;;;;;;;-0.49;84.13;101600.16;4994270;28;20053;-79
2021/01/15 07:49:23;;;;;;;10.45;6.53;;;;;;;-0.46;83.58;101600.13;4988647;28;20043;-77
2021/01/15 07:52:09;;;;;;;9.50;6.53;;;;;;;-0.28;82.88;101602.75;4978124;28;20066;-77
2021/01/15 07:54:45;;;;;;;8.50;5.40;;;;;;;-0.33;82.60;101609.66;4983418;28;20109;-78
2021/01/15 07:57:11;;;;;;;;;;;;;;;-0.27;83.15;101611.38;4998351;28;20466;-77
2021/01/15 07:59:39;;;;;;;10.52;5.40;;;;;;;-0.21;81.48;101613.97;4979751;28;19949;-78
2021/01/15 08:02:06;;;;;;;9.23;5.78;;;;;;;-0.06;81.14;101611.41;4979735;28;20062;-78
2021/01/15 08:04:33;;;;;;;11.75;5.57;;;;;;;-0.29;80.98;101613.09;4963967;28;20058;-77
2021/01/15 08:07:26;;;;;;;8.98;5.63;;;;;;;-0.04;81.43;101614.00;4975895;28;20066;-81
2021/01/15 08:09:52;;;;;;;9.18;5.07;;;;;;;-0.39;81.48;101612.22;4986065;28;20054;-80
2021/01/15 08:12:19;;;;;;;13.02;5.38;;;;;;;-0.39;81.61;101613.97;4966790;28;20051;-80
2021/01/15 08:14:46;;;;;;;10.38;5.63;;;;;;;-0.36;82.40;101614.84;4972045;28;20213;-79
2021/01/15 08:17:14;;;;;;;10.02;5.50;;;;;;;-0.45;82.49;101621.69;4970025;28;20071;-78
2021/01/15 08:19:42;;;;;;;8.63;5.82;;;;;;;-0.42;82.77;101613.94;4954336;28;20062;-76
2021/01/15 08:22:13;;;;;;;9.40;5.25;;;;;;;-0.39;81.69;101616.53;4970961;28;20043;-78
2021/01/15 08:24:47;;;;;;;8.65;5.82;;;;;;;-0.42;83.02;101614.81;4950543;28;20763;-78
2021/01/15 08:27:21;;;;;;;11.55;6.90;;;;;;;-0.34;83.35;101617.41;4950531;28;20497;-79
2021/01/15 08:29:51;;;;;;;8.45;6.20;;;;;;;-0.42;83.13;101616.53;4981350;28;20333;-76
2021/01/15 08:32:18;;;;;;;9.38;6.45;;;;;;;-0.41;83.79;101626.00;4961349;28;20058;-77
2021/01/15 08:34:47;;;;;;;13.27;6.32;;;;;;;-0.24;84.07;101623.47;4952234;28;20061;-75
2021/01/15 08:37:16;;;;;;;9.55;6.32;;;;;;;-0.29;83.26;101628.63;4984067;28;20054;-76
2021/01/15 08:39:44;;;;;;;11.48;5.78;;;;;;;-0.40;83.36;101631.22;4990369;28;20059;-77
2021/01/15 08:42:13;;;;;;;11.18;6.07;;;;;;;-0.39;83.70;101639.81;4973162;28;20119;-77
2021/01/15 08:44:40;;;;;;;9.88;6.50;;;;;;;-0.51;84.55;101626.00;4972517;28;20070;-78
2021/01/15 08:47:13;;;;;;;10.90;6.25;;;;;;;-0.40;84.46;101635.53;4961090;28;20106;-76
2021/01/15 08:49:50;;;;;;;10.15;6.57;;;;;;;-0.27;84.03;101632.97;4972262;28;20047;-75
2021/01/15 08:52:22;;;;;;;11.52;6.63;;;;;;;-0.15;84.49;101641.59;4964686;28;20058;-77
2021/01/15 08:54:49;;;;;;;9.32;6.68;;;;;;;-0.17;83.76;101644.19;4967771;28;20058;-76
2021/01/15 08:57:19;;;;;;;11.95;7.55;;;;;;;-0.32;84.15;101642.41;4969755;28;20051;-76
2021/01/15 08:59:45;;;;;;;10.68;6.85;;;;;;;-0.44;84.33;101641.53;4949705;28;20058;-78
2021/01/15 09:02:15;;;;;;;13.95;7.05;;;;;;;-0.39;84.80;101647.59;4961180;28;20050;-77
2021/01/15 09:04:43;;;;;;;11.15;7.47;;;;;;;-0.28;85.29;101644.16;4947593;28;20138;-76
2021/01/15 09:07:10;;;;;;;10.52;7.20;;;;;;;-0.20;85.06;101648.47;4946650;28;20085;-74
2021/01/15 09:09:39;;;;;;;10.98;7.13;;;;;;;-0.10;85.41;101647.63;4963461;28;20047;-75
2021/01/15 09:12:07;;;;;;;11.45;7.63;;;;;;;-0.03;85.07;101657.13;4953340;28;20078;-77
2021/01/15 09:14:37;;;;;;;19.95;9.02;;;;;;;0.22;90.46;101651.09;4957177;28;20050;-74
2021/01/15 09:17:05;;;;;;;16.00;8.48;;;;;;;0.18;86.19;101658.88;4961909;28;20050;-77
2021/01/15 09:19:32;;;;;;;13.88;8.13;;;;;;;0.12;86.29;101666.63;4960258;28;20047;-77
2021/01/15 09:22:09;;;;;;;12.73;7.10;;;;;;;-0.17;85.52;101669.19;4939788;28;20051;-79
2021/01/15 09:24:36;;;;;;;11.90;7.20;;;;;;;-0.45;86.59;101665.66;4965924;28;20061;-79
2021/01/15 09:27:07;;;;;;;11.23;6.95;;;;;;;-0.29;87.48;101668.31;4955160;28;20055;-79
2021/01/15 09:29:35;;;;;;;8.73;5.72;;;;;;;-0.44;85.33;101670.00;4968679;28;20054;-79
2021/01/15 09:32:02;;;;;;;12.63;6.57;;;;;;;-0.88;86.44;101675.84;4940397;28;20042;-77
2021/01/15 09:34:30;;;;;;;12.48;6.18;;;;;;;-0.74;85.97;101686.25;4968271;28;20131;-77
2021/01/15 09:36:58;;;;;;;10.02;6.78;;;;;;;-1.00;87.20;101678.34;4978512;28;20053;-79
2021/01/15 09:39:28;;;;;;;10.18;6.47;;;;;;;-1.04;87.11;101678.38;4970518;28;20039;-81
2021/01/15 09:41:59;;;;;;;12.75;7.32;;;;;;;-1.12;87.33;101676.59;4958741;28;20047;-78
2021/01/15 09:44:28;;;;;;;12.15;7.03;;;;;;;-0.92;87.61;101674.09;4959925;28;20803;-76
2021/01/15 09:46:59;;;;;;;15.15;7.97;;;;;;;-0.82;87.58;101679.31;4958482;28;20058;-77
2021/01/15 09:49:28;;;;;;;12.85;7.70;;;;;;;-0.43;86.97;101676.91;4964673;28;20059;-76
2021/01/15 09:51:55;;;;;;;12.52;7.80;;;;;;;-0.30;85.50;101682.09;4954922;28;20055;-78
2021/01/15 09:54:22;;;;;;;13.43;7.78;;;;;;;-0.24;85.15;101685.56;4971279;28;20055;-77
2021/01/15 09:56:49;;;;;;;12.45;7.47;;;;;;;-0.47;85.98;101688.94;4960292;28;20069;-78
2021/01/15 09:59:17;;;;;;;12.02;7.40;;;;;;;-0.45;85.64;101700.19;4957416;28;20141;-75
2021/01/15 10:01:47;;;;;;;16.48;7.63;;;;;;;-0.63;86.40;101688.03;4945535;28;20130;-79
2021/01/15 10:04:15;;;;;;;16.25;8.43;;;;;;;-0.58;86.22;101693.22;4963239;28;20054;-76
2021/01/15 10:06:44;;;;;;;14.48;8.43;;;;;;;-0.63;86.63;101688.03;4957915;28;20410;-77
2021/01/15 10:09:13;;;;;;;13.68;7.72;;;;;;;-0.48;85.97;101686.38;4962160;28;20077;-77
2021/01/15 10:11:41;;;;;;;11.90;7.38;;;;;;;-0.36;86.75;101692.44;4960488;28;20166;-77
2021/01/15 10:14:10;;;;;;;13.63;7.70;;;;;;;-0.35;86.01;101693.31;4953755;28;20054;-77
2021/01/15 10:16:41;;;;;;;11.40;7.50;;;;;;;-0.26;86.63;101689.03;4960600;28;20047;-77
2021/01/15 10:19:09;;;;;;;13.27;7.72;;;;;;;-0.14;85.65;101688.16;4958363;28;20063;-75
2021/01/15 10:21:38;;;;;;;15.48;7.90;;;;;;;-0.17;85.01;101683.00;4959622;28;20337;-76
2021/01/15 10:24:13;;;;;;;14.40;7.80;;;;;;;-0.04;85.93;101687.34;4960999;28;20628;-76
2021/01/15 10:26:40;;;;;;;12.35;7.00;;;;;;;-0.15;83.94;101689.03;4959051;28;20074;-77
2021/01/15 10:29:11;;;;;;;15.98;7.47;;;;;;;-0.18;84.59;101688.16;4964765;28;20054;-76
2021/01/15 10:31:55;;;;;;;12.23;7.28;;;;;;;0.04;83.99;101676.13;4960255;28;20047;-76
2021/01/15 10:34:25;;;;;;;9.38;6.00;;;;;;;-0.35;83.94;101680.38;4949556;28;20078;-76
2021/01/15 10:36:52;;;;;;;10.38;6.32;;;;;;;-0.28;83.85;101685.53;4969891;28;20541;-75
2021/01/15 10:39:19;;;;;;;11.82;7.07;;;;;;;0.07;85.35;101687.34;4961304;28;20083;-76
2021/01/15 10:41:49;;;;;;;11.80;5.90;;;;;;;-0.01;82.67;101683.88;4952244;28;20536;-77
2021/01/15 10:44:16;;;;;;;13.70;7.22;;;;;;;-0.39;84.16;101678.63;4941678;28;20074;-77
2021/01/15 10:46:44;;;;;;;11.75;6.53;;;;;;;0.13;83.94;101691.66;4960968;28;20328;-76
2021/01/15 10:49:16;;;;;;;11.98;7.45;;;;;;;0.08;82.66;101686.47;4945605;28;20055;-76
2021/01/15 10:51:53;;;;;;;9.75;5.93;;;;;;;-0.13;82.26;101682.16;4952451;28;20059;-75
2021/01/15 10:54:24;;;;;;;9.05;5.78;;;;;;;0.14;81.69;101677.88;4951256;28;21101;-76
2021/01/15 10:56:52;;;;;;;10.65;6.80;;;;;;;0.14;82.01;101681.31;4973816;28;20051;-75
2021/01/15 10:59:20;;;;;;;11.32;5.75;;;;;;;0.47;79.93;101682.19;4956857;28;20074;-75
2021/01/15 11:01:49;;;;;;;11.88;5.45;;;;;;;0.25;80.03;101669.22;4965334;28;20850;-75
2021/01/15 11:04:17;;;;;;;9.77;6.35;;;;;;;0.34;80.86;101677.88;4958775;28;20042;-76
2021/01/15 11:06:46;;;;;;;10.10;6.38;;;;;;;0.08;81.04;101675.25;4968223;28;20047;-75
2021/01/15 11:09:19;;;;;;;9.45;6.43;;;;;;;-0.20;82.20;101682.13;4969337;28;20500;-76
2021/01/15 11:12:04;;;;;;;15.68;7.15;;;;;;;-0.45;83.91;101676.91;4966421;28;20055;-74
2021/01/15 11:14:30;;;;;;;10.32;6.78;;;;;;;-0.16;83.10;101668.34;4966674;28;20092;-76
2021/01/15 11:16:57;;;;;;;12.70;6.28;;;;;;;-0.19;83.18;101676.94;4970578;28;20055;-75
2021/01/15 11:19:24;;;;;;;10.60;6.05;;;;;;;-0.52;83.98;101672.56;4971737;28;20055;-77
2021/01/15 11:21:51;;;;;;;12.02;6.88;;;;;;;-0.52;84.90;101663.06;4970973;28;20322;-77
2021/01/15 11:24:19;;;;;;;13.48;6.70;;;;;;;-0.49;84.44;101676.88;4951043;28;20520;-75
2021/01/15 11:26:46;;;;;;;10.20;6.30;;;;;;;-0.34;84.19;101671.75;4967619;28;20043;-77
2021/01/15 11:29:13;;;;;;;9.88;6.50;;;;;;;-0.13;84.76;101678.69;4966862;28;20073;-74
2021/01/15 11:31:41;;;;;;;11.68;6.78;;;;;;;-0.03;83.82;101670.94;4974958;28;20035;-78
2021/01/15 11:34:08;;;;;;;10.85;6.70;;;;;;;-0.10;82.72;101674.38;4973298;28;20050;-78
2021/01/15 11:36:35;;;;;;;10.90;7.10;;;;;;;-0.28;84.04;101671.75;4963107;28;20586;-77